Time;durP1;ratioP1;P1;durP2;ratioP2;P2;SDS_P1;SDS_P2;PMS_P1;PMS_P2;Temp;Humidity;BMP_temperature;BMP_pressure;BME280_temperature;BME280_humidity;BME280_pressure;Samples;Min_cycle;Max_cycle;Signal;HPM_P1;HPM_P2
2022/03/17 00:01:38;;;;;;;54.37;30.40;;;7.60;99.90;;;;;;5043918;28;20212;-71
2022/03/17 00:04:04;;;;;;;51.30;29.37;;;7.60;99.90;;;;;;5045316;28;20218;-71
2022/03/17 00:06:29;;;;;;;55.97;29.73;;;7.60;99.90;;;;;;5043919;28;20175;-71
2022/03/17 00:08:55;;;;;;;54.40;30.60;;;7.60;99.90;;;;;;5040567;28;20188;-71
2022/03/17 00:11:22;;;;;;;51.97;30.97;;;7.50;99.90;;;;;;5041994;28;20215;-71
2022/03/17 00:13:47;;;;;;;55.53;31.03;;;7.50;99.90;;;;;;5044274;28;20207;-72
2022/03/17 00:16:13;;;;;;;54.10;31.13;;;7.40;99.90;;;;;;5045738;28;20210;-71
2022/03/17 00:18:38;;;;;;;51.40;30.03;;;7.40;99.90;;;;;;5043227;28;20746;-72
2022/03/17 00:21:04;;;;;;;52.43;30.33;;;7.40;99.90;;;;;;5044476;28;20227;-71
2022/03/17 00:23:30;;;;;;;52.40;30.07;;;7.40;99.90;;;;;;5043941;28;20204;-71
2022/03/17 00:25:56;;;;;;;52.47;30.67;;;7.40;99.90;;;;;;5050151;28;20216;-70
2022/03/17 00:28:21;;;;;;;55.50;31.13;;;7.40;99.90;;;;;;5043114;28;20589;-70
2022/03/17 00:30:47;;;;;;;53.90;29.87;;;7.40;99.90;;;;;;5042098;28;20204;-71
2022/03/17 00:33:12;;;;;;;51.87;29.70;;;7.40;99.90;;;;;;5041807;28;20180;-71
2022/03/17 00:35:44;;;;;;;59.23;31.73;;;7.30;99.90;;;;;;5044445;28;20793;-71
2022/03/17 00:38:14;;;;;;;57.20;32.33;;;7.30;99.90;;;;;;5037995;28;20208;-70
2022/03/17 00:40:41;;;;;;;52.30;30.00;;;7.30;99.90;;;;;;5043732;28;20208;-71
2022/03/17 00:43:11;;;;;;;56.67;30.10;;;7.20;99.90;;;;;;5043673;28;20211;-71
2022/03/17 00:45:36;;;;;;;57.87;31.27;;;7.20;99.90;;;;;;5043005;28;20279;-71
2022/03/17 00:48:03;;;;;;;53.47;30.23;;;7.10;99.90;;;;;;5041151;28;20337;-70
2022/03/17 00:50:29;;;;;;;52.83;31.23;;;7.20;99.90;;;;;;5042516;28;20208;-70
2022/03/17 00:52:54;;;;;;;56.77;31.63;;;7.20;99.90;;;;;;5043490;28;20211;-70
2022/03/17 00:55:21;;;;;;;52.30;30.67;;;7.10;99.90;;;;;;5042887;28;20286;-71
2022/03/17 00:57:47;;;;;;;54.20;29.53;;;7.00;99.90;;;;;;5040776;28;20200;-71
2022/03/17 01:00:14;;;;;;;57.10;31.80;;;7.00;99.90;;;;;;5039433;28;20180;-71
2022/03/17 01:02:43;;;;;;;51.47;30.50;;;7.00;99.90;;;;;;5044019;28;20200;-71
2022/03/17 01:05:10;;;;;;;54.10;30.47;;;7.00;99.90;;;;;;5043300;28;20196;-71
2022/03/17 01:07:37;;;;;;;52.13;32.40;;;6.90;99.90;;;;;;5042334;28;20255;-71
2022/03/17 01:10:15;;;;;;;55.00;31.70;;;6.80;99.90;;;;;;5038809;28;20287;-71
2022/03/17 01:12:43;;;;;;;57.37;32.47;;;6.80;99.90;;;;;;5049159;28;20884;-72
2022/03/17 01:15:09;;;;;;;60.00;33.23;;;6.80;99.90;;;;;;5041291;28;20574;-71
2022/03/17 01:17:35;;;;;;;56.53;31.47;;;6.80;99.90;;;;;;5042520;28;20207;-71
2022/03/17 01:20:01;;;;;;;60.33;33.23;;;6.80;99.90;;;;;;5062949;22;20228;-76
2022/03/17 01:22:26;;;;;;;54.57;31.90;;;6.80;99.90;;;;;;5052335;28;20225;-76
2022/03/17 01:24:52;;;;;;;53.13;32.03;;;6.80;99.90;;;;;;5052483;28;20200;-76
2022/03/17 01:27:23;;;;;;;56.20;32.67;;;6.80;99.90;;;;;;5052252;28;20214;-76
2022/03/17 01:29:49;;;;;;;55.87;32.10;;;6.80;99.90;;;;;;5039273;28;20192;-76
2022/03/17 01:32:16;;;;;;;56.47;32.60;;;6.80;99.90;;;;;;5039888;28;20211;-75
2022/03/17 01:34:42;;;;;;;59.13;33.40;;;6.80;99.90;;;;;;5040970;28;20204;-76
2022/03/17 01:37:07;;;;;;;53.67;31.53;;;6.80;99.90;;;;;;5040538;28;20207;-76
2022/03/17 01:39:33;;;;;;;58.57;32.13;;;6.80;99.90;;;;;;5041250;28;20216;-76
2022/03/17 01:42:02;;;;;;;57.90;33.67;;;6.80;99.90;;;;;;5038998;28;20210;-75
2022/03/17 01:44:27;;;;;;;50.33;31.80;;;6.80;99.90;;;;;;5031824;28;20584;-75
2022/03/17 01:49:40;;;;;;;54.80;32.77;;;6.70;99.90;;;;;;5040534;28;20697;-75
2022/03/17 01:52:06;;;;;;;61.63;32.70;;;6.70;99.90;;;;;;5040207;28;20290;-75
2022/03/17 01:54:33;;;;;;;59.27;33.80;;;6.70;99.90;;;;;;5040169;28;21248;-74
2022/03/17 01:56:59;;;;;;;62.73;34.73;;;6.80;99.90;;;;;;5045121;28;20173;-74
2022/03/17 01:59:26;;;;;;;59.33;33.60;;;6.70;99.90;;;;;;5031555;28;20213;-74
2022/03/17 02:01:53;;;;;;;61.33;33.60;;;6.70;99.90;;;;;;5046037;28;20208;-75
2022/03/17 02:04:19;;;;;;;61.33;32.87;;;6.70;99.90;;;;;;5039861;28;20210;-74
2022/03/17 02:06:45;;;;;;;62.30;34.93;;;6.60;99.90;;;;;;5039668;28;20231;-75
2022/03/17 02:09:11;;;;;;;57.23;32.90;;;6.70;99.90;;;;;;5046498;28;20227;-76
2022/03/17 02:14:22;;;;;;;61.93;34.83;;;6.50;99.90;;;;;;5039760;28;20210;-76
2022/03/17 02:16:49;;;;;;;61.10;34.90;;;6.50;99.90;;;;;;5043184;28;20269;-75
2022/03/17 02:19:15;;;;;;;61.13;36.50;;;6.50;99.90;;;;;;5033277;28;20563;-75
2022/03/17 02:21:40;;;;;;;65.90;35.57;;;6.50;99.90;;;;;;5040927;28;20264;-75
2022/03/17 02:26:50;;;;;;;64.93;36.20;;;6.40;99.90;;;;;;5046159;28;20243;-75
2022/03/17 02:29:16;;;;;;;62.20;35.90;;;6.40;99.90;;;;;;5037310;28;20232;-75
2022/03/17 02:31:41;;;;;;;64.50;37.50;;;6.40;99.90;;;;;;5040948;28;20278;-75
2022/03/17 02:34:07;;;;;;;69.10;37.97;;;6.30;99.90;;;;;;5044832;28;20664;-75
2022/03/17 02:36:32;;;;;;;59.53;35.47;;;6.30;99.90;;;;;;5041125;28;20215;-75
2022/03/17 02:38:58;;;;;;;64.37;37.07;;;6.30;99.90;;;;;;5037397;28;20233;-75
2022/03/17 02:41:23;;;;;;;62.00;36.33;;;6.30;99.90;;;;;;5047401;28;20219;-76
2022/03/17 02:43:55;;;;;;;61.53;35.13;;;6.40;99.90;;;;;;5038237;28;20222;-75
2022/03/17 02:46:24;;;;;;;60.97;34.43;;;6.30;99.90;;;;;;5037104;28;20200;-77
2022/03/17 02:48:49;;;;;;;66.13;38.77;;;6.30;99.90;;;;;;5038712;28;20635;-76
2022/03/17 02:51:16;;;;;;;72.10;39.50;;;6.30;99.90;;;;;;5039298;28;20186;-75
2022/03/17 02:53:42;;;;;;;69.47;38.10;;;6.30;99.90;;;;;;5041439;28;20189;-75
2022/03/17 02:56:07;;;;;;;65.23;39.33;;;6.30;99.90;;;;;;5048590;28;20203;-75
2022/03/17 02:58:33;;;;;;;65.13;37.93;;;6.30;99.90;;;;;;5055685;28;20328;-76
2022/03/17 03:00:58;;;;;;;71.17;39.53;;;6.20;99.90;;;;;;5057829;28;20214;-75
2022/03/17 03:03:24;;;;;;;68.17;39.03;;;6.20;99.90;;;;;;5049434;28;20179;-75
2022/03/17 03:05:49;;;;;;;69.67;39.03;;;6.10;99.90;;;;;;5055090;28;20198;-76
2022/03/17 03:08:15;;;;;;;70.40;40.40;;;6.20;99.90;;;;;;5054648;28;20198;-76
2022/03/17 03:10:41;;;;;;;68.33;40.60;;;6.00;99.90;;;;;;5058579;28;20216;-77
2022/03/17 03:13:06;;;;;;;70.23;41.97;;;6.10;99.90;;;;;;5055115;28;20273;-75
2022/03/17 03:15:32;;;;;;;66.80;39.77;;;6.10;99.90;;;;;;5057970;28;20223;-75
2022/03/17 03:17:57;;;;;;;70.03;40.73;;;6.10;99.90;;;;;;5057804;28;20174;-75
2022/03/17 03:20:23;;;;;;;72.53;40.67;;;6.00;99.90;;;;;;5057867;28;20233;-76
2022/03/17 03:22:49;;;;;;;71.33;39.80;;;6.00;99.90;;;;;;5053252;28;20225;-75
2022/03/17 03:25:14;;;;;;;67.93;40.30;;;6.00;99.90;;;;;;5064497;28;20207;-76
2022/03/17 03:27:40;;;;;;;75.60;40.83;;;6.00;99.90;;;;;;5064070;28;20221;-74
2022/03/17 03:30:08;;;;;;;68.50;39.43;;;6.10;99.90;;;;;;5054029;28;20198;-75
2022/03/17 03:32:34;;;;;;;68.90;41.90;;;6.10;99.90;;;;;;5043553;28;20294;-75
2022/03/17 03:37:22;;;;;;;67.37;39.37;;;6.20;99.90;;;;;;5043080;28;20243;-75
2022/03/17 03:37:45;;;;;;;67.63;40.20;;;6.30;99.90;;;;;;5040448;28;20200;-75
2022/03/17 03:40:10;;;;;;;67.63;40.60;;;6.20;99.90;;;;;;5045773;28;20215;-75
2022/03/17 03:42:36;;;;;;;66.57;41.20;;;6.30;99.90;;;;;;5046601;28;20218;-76
2022/03/17 03:45:08;;;;;;;69.83;40.53;;;6.20;99.90;;;;;;5044981;28;20649;-76
2022/03/17 03:47:33;;;;;;;68.43;41.07;;;6.20;99.90;;;;;;5035160;28;20588;-76
2022/03/17 03:49:59;;;;;;;70.63;40.80;;;6.20;99.90;;;;;;5046852;28;20226;-75
2022/03/17 03:52:24;;;;;;;69.77;38.93;;;6.20;99.90;;;;;;5041440;28;20211;-75
2022/03/17 03:54:50;;;;;;;66.53;38.43;;;6.20;99.90;;;;;;5045906;28;20610;-75
2022/03/17 03:57:15;;;;;;;74.20;40.83;;;6.20;99.90;;;;;;5044339;28;20781;-74
2022/03/17 03:59:42;;;;;;;69.97;41.23;;;6.30;99.90;;;;;;5042745;28;20226;-76
2022/03/17 04:02:09;;;;;;;71.60;39.00;;;6.30;99.90;;;;;;5042333;28;20318;-75
2022/03/17 04:04:39;;;;;;;68.00;39.67;;;6.30;99.90;;;;;;5042761;28;20204;-76
2022/03/17 04:07:08;;;;;;;67.70;39.90;;;6.30;99.90;;;;;;5047942;28;20575;-76
2022/03/17 04:09:35;;;;;;;64.97;40.07;;;6.30;99.90;;;;;;5043106;28;20579;-76
2022/03/17 04:12:02;;;;;;;69.77;38.27;;;6.40;99.90;;;;;;5048245;28;20178;-77
2022/03/17 04:14:31;;;;;;;60.77;36.63;;;6.30;99.90;;;;;;5044443;28;20204;-75
2022/03/17 04:16:57;;;;;;;67.07;36.87;;;6.30;99.90;;;;;;5040802;28;20208;-75
2022/03/17 04:19:23;;;;;;;67.33;39.17;;;6.30;99.90;;;;;;5040243;28;20277;-75
2022/03/17 04:21:49;;;;;;;65.87;37.83;;;6.20;99.90;;;;;;5041881;28;20220;-76
2022/03/17 04:24:16;;;;;;;69.20;39.93;;;6.30;99.90;;;;;;5040914;28;20597;-75
2022/03/17 04:26:42;;;;;;;69.47;39.07;;;6.20;99.90;;;;;;5043693;28;20175;-76
2022/03/17 04:29:09;;;;;;;67.13;38.43;;;6.20;99.90;;;;;;5044542;28;20211;-76
2022/03/17 04:31:36;;;;;;;71.43;39.67;;;6.20;99.90;;;;;;5043009;28;20224;-76
2022/03/17 04:34:01;;;;;;;67.90;39.57;;;6.20;99.90;;;;;;5041706;28;20703;-76
2022/03/17 04:36:27;;;;;;;68.63;40.63;;;6.20;99.90;;;;;;5041136;28;20179;-76
2022/03/17 04:38:53;;;;;;;72.67;40.07;;;6.20;99.90;;;;;;5044811;28;20195;-76
2022/03/17 04:41:19;;;;;;;67.80;39.97;;;6.20;99.90;;;;;;5044304;28;20243;-76
2022/03/17 04:43:45;;;;;;;66.17;38.13;;;6.20;99.90;;;;;;5041738;28;20581;-76
2022/03/17 04:46:10;;;;;;;69.30;40.30;;;6.20;99.90;;;;;;5040308;28;20299;-76
2022/03/17 04:48:37;;;;;;;68.63;40.73;;;6.30;99.90;;;;;;5042334;28;20211;-76
2022/03/17 04:51:03;;;;;;;72.47;40.87;;;6.30;99.90;;;;;;5044176;28;20180;-76
2022/03/17 04:53:29;;;;;;;71.67;41.67;;;6.30;99.90;;;;;;5036519;28;20254;-76
2022/03/17 04:56:09;;;;;;;68.40;40.77;;;6.20;99.90;;;;;;5044896;28;20202;-76
2022/03/17 04:58:40;;;;;;;70.20;41.10;;;6.30;99.90;;;;;;5042642;28;20243;-76
2022/03/17 05:01:07;;;;;;;73.30;42.93;;;6.30;99.90;;;;;;5043218;28;20223;-75
2022/03/17 05:03:33;;;;;;;80.10;41.93;;;6.30;99.90;;;;;;5034490;28;20303;-76
2022/03/17 05:05:59;;;;;;;74.53;42.63;;;6.30;99.90;;;;;;5040278;28;20187;-75
2022/03/17 05:08:25;;;;;;;75.83;43.13;;;6.30;99.90;;;;;;5040412;28;20251;-75
2022/03/17 05:10:52;;;;;;;75.30;42.87;;;6.30;99.90;;;;;;5039806;28;20216;-74
2022/03/17 05:13:19;;;;;;;67.73;40.93;;;6.30;99.90;;;;;;5043270;28;20754;-76
2022/03/17 05:15:46;;;;;;;73.97;41.20;;;6.30;99.90;;;;;;5042640;28;20215;-75
2022/03/17 05:18:12;;;;;;;74.03;42.20;;;6.40;99.90;;;;;;5044309;28;20247;-77
2022/03/17 05:20:40;;;;;;;78.37;43.50;;;6.30;99.90;;;;;;5041800;28;20765;-75
2022/03/17 05:23:09;;;;;;;74.07;41.70;;;6.30;99.90;;;;;;5038788;28;20226;-75
2022/03/17 05:25:35;;;;;;;72.67;41.53;;;6.20;99.90;;;;;;5032466;28;20738;-75
2022/03/17 05:28:01;;;;;;;78.10;43.07;;;6.20;99.90;;;;;;5040158;28;20220;-75
2022/03/17 05:30:28;;;;;;;75.93;42.20;;;6.20;99.90;;;;;;5041495;28;20215;-75
2022/03/17 05:32:53;;;;;;;73.40;43.43;;;6.20;99.90;;;;;;5043902;28;20669;-75
2022/03/17 05:35:19;;;;;;;81.40;45.83;;;6.20;99.90;;;;;;5044124;28;20219;-76
2022/03/17 05:37:45;;;;;;;72.53;43.27;;;6.20;99.90;;;;;;5038980;28;20215;-76
2022/03/17 05:40:17;;;;;;;77.57;44.93;;;6.20;99.90;;;;;;5039752;28;20585;-76
2022/03/17 05:42:48;;;;;;;81.70;45.90;;;6.20;99.90;;;;;;5035492;28;20269;-76
2022/03/17 05:45:17;;;;;;;72.07;43.70;;;6.20;99.90;;;;;;5038242;28;20180;-75
2022/03/17 05:47:48;;;;;;;78.20;44.37;;;6.30;99.90;;;;;;5032538;28;20194;-75
2022/03/17 05:50:20;;;;;;;80.27;45.50;;;6.20;99.90;;;;;;5045240;28;20605;-76
2022/03/17 05:52:47;;;;;;;83.03;45.57;;;6.20;99.90;;;;;;5040048;28;20240;-75
2022/03/17 05:55:17;;;;;;;81.67;47.83;;;6.20;99.90;;;;;;5040150;28;20218;-75
2022/03/17 05:57:45;;;;;;;80.90;46.43;;;6.30;99.90;;;;;;5042750;28;20218;-75
2022/03/17 06:00:14;;;;;;;82.87;46.30;;;6.30;99.90;;;;;;5043489;28;20230;-74
2022/03/17 06:02:39;;;;;;;84.83;47.20;;;6.20;99.90;;;;;;5040831;28;20700;-75
2022/03/17 06:05:06;;;;;;;83.50;46.17;;;6.30;99.90;;;;;;5039926;28;20254;-75
2022/03/17 06:07:40;;;;;;;79.83;46.33;;;6.20;99.90;;;;;;5041514;28;20232;-75
2022/03/17 06:10:08;;;;;;;83.77;48.77;;;6.30;99.90;;;;;;5041733;28;20268;-75
2022/03/17 06:12:33;;;;;;;88.90;48.37;;;6.30;99.90;;;;;;5043134;28;20223;-75
2022/03/17 06:14:59;;;;;;;85.63;47.97;;;6.30;99.90;;;;;;5042522;28;20649;-75
2022/03/17 06:17:38;;;;;;;84.63;47.80;;;6.30;99.90;;;;;;5041834;28;20235;-75
2022/03/17 06:20:04;;;;;;;79.13;48.20;;;6.30;99.90;;;;;;5042133;28;20222;-75
2022/03/17 06:22:30;;;;;;;102.17;57.87;;;6.30;99.90;;;;;;5041762;28;20703;-75
2022/03/17 06:24:55;;;;;;;85.50;47.57;;;6.40;99.90;;;;;;5043877;28;20208;-75
2022/03/17 06:27:21;;;;;;;90.23;49.90;;;6.40;99.90;;;;;;5043464;28;20182;-76
2022/03/17 06:29:46;;;;;;;91.03;48.43;;;6.40;99.90;;;;;;5045191;28;20196;-75
2022/03/17 06:32:12;;;;;;;84.07;49.13;;;6.40;99.90;;;;;;5043390;28;20213;-75
2022/03/17 06:34:37;;;;;;;83.13;48.03;;;6.50;99.90;;;;;;5048848;28;20226;-75
2022/03/17 06:37:03;;;;;;;85.37;48.70;;;6.40;99.90;;;;;;5038430;28;20227;-75
2022/03/17 06:39:29;;;;;;;85.47;49.03;;;6.50;99.90;;;;;;5039801;28;20204;-76
2022/03/17 06:41:54;;;;;;;87.50;47.43;;;6.50;99.90;;;;;;5042027;28;20233;-75
2022/03/17 06:44:19;;;;;;;82.53;49.30;;;6.50;99.90;;;;;;5041313;28;20239;-75
2022/03/17 06:46:45;;;;;;;86.03;50.43;;;6.40;99.90;;;;;;5042719;28;20579;-76
2022/03/17 06:49:10;;;;;;;82.37;49.10;;;6.60;99.90;;;;;;5040852;28;20224;-75
2022/03/17 06:51:36;;;;;;;83.33;48.37;;;6.60;99.90;;;;;;5044663;28;20260;-74
2022/03/17 06:54:01;;;;;;;87.13;49.57;;;6.60;99.90;;;;;;5043339;28;20172;-75
2022/03/17 06:56:27;;;;;;;88.50;50.90;;;6.70;99.90;;;;;;5041933;28;20869;-75
2022/03/17 06:58:52;;;;;;;86.43;48.93;;;6.80;99.90;;;;;;5038616;28;20207;-76
2022/03/17 07:01:18;;;;;;;86.93;49.57;;;6.70;99.90;;;;;;5047923;28;20215;-75
2022/03/17 07:03:43;;;;;;;88.40;50.47;;;6.80;99.90;;;;;;5039340;28;20227;-75
2022/03/17 07:06:09;;;;;;;89.20;51.97;;;6.80;99.90;;;;;;5038344;28;20183;-75
2022/03/17 07:08:34;;;;;;;87.43;50.30;;;6.80;99.90;;;;;;5040197;28;20230;-75
2022/03/17 07:10:59;;;;;;;88.67;50.40;;;7.00;99.90;;;;;;5043680;28;20195;-78
2022/03/17 07:13:25;;;;;;;86.77;50.10;;;7.00;99.90;;;;;;5041130;28;20195;-76
2022/03/17 07:15:50;;;;;;;85.13;49.03;;;7.10;99.90;;;;;;5039137;28;20234;-76
2022/03/17 07:18:16;;;;;;;86.00;50.53;;;7.30;99.90;;;;;;5038513;28;20267;-76
2022/03/17 07:20:43;;;;;;;82.70;50.50;;;7.30;99.90;;;;;;5067803;23;20231;-72
2022/03/17 07:23:08;;;;;;;89.70;50.07;;;7.30;99.90;;;;;;5050890;28;20242;-71
2022/03/17 07:25:34;;;;;;;91.27;50.83;;;7.30;99.90;;;;;;5050597;28;20204;-73
2022/03/17 07:27:59;;;;;;;85.83;48.07;;;7.10;99.90;;;;;;5049699;28;20276;-70
2022/03/17 07:30:26;;;;;;;89.50;49.83;;;7.20;99.90;;;;;;5050809;28;20192;-71
2022/03/17 07:32:55;;;;;;;96.80;51.83;;;7.20;99.90;;;;;;5063087;28;20523;-71
2022/03/17 07:35:22;;;;;;;93.17;48.93;;;7.20;99.90;;;;;;5062264;28;20268;-72
2022/03/17 07:37:49;;;;;;;94.33;49.07;;;7.20;99.90;;;;;;5060387;28;20209;-70
2022/03/17 07:40:14;;;;;;;85.80;49.50;;;7.10;99.90;;;;;;5061636;28;20218;-72
2022/03/17 07:42:40;;;;;;;85.87;48.97;;;7.20;99.90;;;;;;5058958;28;20231;-71
2022/03/17 07:45:06;;;;;;;85.03;48.50;;;7.40;99.90;;;;;;5059019;28;20525;-72
2022/03/17 07:47:33;;;;;;;84.80;51.03;;;7.30;99.90;;;;;;5059835;28;20257;-72
2022/03/17 07:50:00;;;;;;;88.00;50.20;;;7.30;99.90;;;;;;5060142;28;20261;-72
2022/03/17 07:52:26;;;;;;;85.13;48.60;;;7.50;99.90;;;;;;5058060;28;20326;-72
2022/03/17 07:54:51;;;;;;;88.50;49.03;;;7.40;99.90;;;;;;5062705;28;20222;-73
2022/03/17 07:57:17;;;;;;;87.73;50.27;;;7.50;99.90;;;;;;5065553;28;20193;-71
2022/03/17 07:59:43;;;;;;;84.03;48.27;;;7.40;99.90;;;;;;5060704;28;20179;-72
2022/03/17 08:02:08;;;;;;;89.67;50.63;;;7.40;99.90;;;;;;5062084;28;20215;-72
2022/03/17 08:04:35;;;;;;;82.30;47.97;;;7.60;99.90;;;;;;5063785;28;20285;-71
2022/03/17 08:07:01;;;;;;;86.83;50.67;;;7.60;99.90;;;;;;5064269;28;20282;-71
2022/03/17 08:09:28;;;;;;;89.03;50.40;;;7.70;99.90;;;;;;5062286;28;20217;-71
2022/03/17 08:11:53;;;;;;;81.20;49.13;;;7.80;99.90;;;;;;5059847;28;20179;-71
2022/03/17 08:14:19;;;;;;;84.63;48.87;;;7.80;99.90;;;;;;5060654;28;20579;-73
2022/03/17 08:16:44;;;;;;;81.37;48.57;;;7.70;99.90;;;;;;5063662;28;20211;-72
2022/03/17 08:19:11;;;;;;;86.77;49.87;;;7.70;99.90;;;;;;5064582;28;20211;-72
2022/03/17 08:21:37;;;;;;;82.10;49.57;;;7.70;99.90;;;;;;5064422;28;20308;-72
2022/03/17 08:24:02;;;;;;;78.90;48.47;;;7.80;99.90;;;;;;5062105;28;20637;-72
2022/03/17 08:26:28;;;;;;;80.13;49.33;;;7.90;99.90;;;;;;5062680;28;20230;-72
2022/03/17 08:28:53;;;;;;;83.67;48.67;;;7.90;99.90;;;;;;5064233;28;20221;-71
2022/03/17 08:31:19;;;;;;;83.43;46.93;;;7.80;99.90;;;;;;5064930;28;20207;-70
2022/03/17 08:33:44;;;;;;;84.03;49.47;;;7.70;99.90;;;;;;5060416;28;20207;-71
2022/03/17 08:36:10;;;;;;;89.57;50.40;;;7.80;99.90;;;;;;5060746;28;20175;-71
2022/03/17 08:38:35;;;;;;;82.23;48.37;;;7.90;99.90;;;;;;5061689;28;20287;-74
2022/03/17 08:41:01;;;;;;;83.93;48.97;;;8.00;99.90;;;;;;5055834;28;20528;-78
2022/03/17 08:43:26;;;;;;;83.80;50.20;;;8.20;99.90;;;;;;5054530;28;20207;-73
2022/03/17 08:51:24;;;;;;;84.47;47.90;;;8.40;99.90;;;;;;5079395;28;20205;-78
2022/03/17 08:53:50;;;;;;;80.47;46.77;;;8.30;99.90;;;;;;5051946;28;20707;-73
2022/03/17 08:56:16;;;;;;;79.80;48.27;;;8.20;99.90;;;;;;5060994;28;20691;-74
2022/03/17 08:58:41;;;;;;;84.33;47.87;;;8.20;99.90;;;;;;5059900;28;20239;-73
2022/03/17 09:01:07;;;;;;;81.93;48.80;;;8.40;99.90;;;;;;5060709;28;20208;-74
2022/03/17 09:03:33;;;;;;;76.10;46.63;;;8.50;99.90;;;;;;5060617;28;20211;-74
2022/03/17 09:06:00;;;;;;;78.97;47.90;;;8.60;99.90;;;;;;5056704;28;20175;-73
2022/03/17 09:08:26;;;;;;;81.67;48.70;;;8.60;99.90;;;;;;5060739;28;20203;-73
2022/03/17 09:10:55;;;;;;;81.70;48.63;;;8.60;99.90;;;;;;5060124;28;20215;-73
2022/03/17 09:13:22;;;;;;;78.60;46.77;;;8.70;99.90;;;;;;5058742;28;20665;-74
2022/03/17 09:15:49;;;;;;;81.23;47.50;;;8.60;99.90;;;;;;5062639;28;20210;-73
2022/03/17 09:18:15;;;;;;;76.20;48.03;;;8.70;99.90;;;;;;5063228;28;20170;-74
2022/03/17 09:20:41;;;;;;;77.40;44.67;;;8.80;99.90;;;;;;5067576;28;20230;-74
2022/03/17 09:23:07;;;;;;;81.67;47.47;;;8.80;99.90;;;;;;5079928;28;20222;-73
2022/03/17 09:25:34;;;;;;;77.27;47.03;;;8.80;99.90;;;;;;5064884;28;20203;-73
2022/03/17 09:28:00;;;;;;;75.73;46.37;;;8.90;99.90;;;;;;5058394;28;20584;-74
2022/03/17 09:30:26;;;;;;;77.37;45.37;;;9.00;99.90;;;;;;5060268;28;20192;-74
2022/03/17 09:32:52;;;;;;;76.30;44.83;;;9.00;99.90;;;;;;5062464;28;20183;-73
2022/03/17 09:35:18;;;;;;;74.23;46.03;;;9.00;99.90;;;;;;5061838;28;20236;-77
2022/03/17 09:37:44;;;;;;;74.97;46.07;;;9.10;99.90;;;;;;5058289;28;20242;-73
2022/03/17 09:40:10;;;;;;;79.93;44.77;;;9.20;99.90;;;;;;5056768;28;20687;-75
2022/03/17 09:42:37;;;;;;;74.03;46.37;;;9.10;99.90;;;;;;5060705;28;20230;-74
2022/03/17 09:45:03;;;;;;;73.47;45.63;;;9.20;99.90;;;;;;5060444;28;20737;-77
2022/03/17 09:47:32;;;;;;;74.23;44.73;;;9.30;99.90;;;;;;5066747;28;20873;-72
2022/03/17 09:49:59;;;;;;;75.27;46.60;;;9.30;99.90;;;;;;5058589;28;20216;-73
2022/03/17 09:52:26;;;;;;;78.73;46.00;;;9.10;99.90;;;;;;5062778;28;20242;-74
2022/03/17 09:54:52;;;;;;;77.40;46.93;;;9.20;99.90;;;;;;5061575;28;20215;-73
2022/03/17 09:57:19;;;;;;;78.80;48.47;;;9.30;99.90;;;;;;5062793;28;20202;-78
2022/03/17 09:59:54;;;;;;;74.73;45.27;;;9.40;99.90;;;;;;5058806;28;20180;-76
2022/03/17 10:02:20;;;;;;;78.37;45.40;;;9.50;99.90;;;;;;5059303;28;20708;-78
2022/03/17 10:04:48;;;;;;;75.50;45.67;;;9.50;99.90;;;;;;5057974;28;20223;-75
2022/03/17 10:07:15;;;;;;;75.33;45.20;;;9.50;99.90;;;;;;5057799;28;20204;-79
2022/03/17 10:09:42;;;;;;;71.80;45.07;;;9.60;99.90;;;;;;5059301;28;20691;-78
2022/03/17 10:12:10;;;;;;;73.63;43.30;;;9.60;99.90;;;;;;5061786;28;20182;-78
2022/03/17 10:14:36;;;;;;;70.07;44.37;;;9.70;99.90;;;;;;5060351;28;20211;-80
2022/03/17 10:17:09;;;;;;;76.67;44.63;;;9.70;99.90;;;;;;5058345;28;20218;-79
2022/03/17 10:19:34;;;;;;;73.77;47.10;;;9.70;99.90;;;;;;5059659;28;20199;-77
2022/03/17 10:22:08;;;;;;;74.73;45.70;;;9.80;99.90;;;;;;5064624;28;20223;-78
2022/03/17 10:24:36;;;;;;;68.73;44.67;;;9.90;99.90;;;;;;5059193;28;20214;-77
2022/03/17 10:27:03;;;;;;;73.47;43.97;;;10.00;99.90;;;;;;5062857;28;20171;-77
2022/03/17 10:29:29;;;;;;;67.20;44.40;;;10.20;99.90;;;;;;5060323;28;20211;-78
2022/03/17 10:32:12;;;;;;;73.33;43.23;;;10.20;99.90;;;;;;5058875;28;20643;-78
2022/03/17 10:34:56;;;;;;;69.20;42.70;;;10.20;99.90;;;;;;5059672;28;20290;-78
2022/03/17 10:37:24;;;;;;;70.50;44.23;;;10.50;99.90;;;;;;5061120;28;20209;-82
2022/03/17 10:40:05;;;;;;;69.20;44.77;;;10.40;99.90;;;;;;5061479;28;20207;-76
2022/03/17 10:42:30;;;;;;;73.27;46.27;;;10.40;99.90;;;;;;5060512;28;20282;-78
2022/03/17 10:45:00;;;;;;;70.03;43.77;;;10.40;99.90;;;;;;5059308;28;20259;-77
2022/03/17 10:47:34;;;;;;;71.73;43.83;;;10.40;99.90;;;;;;5059249;28;20722;-76
2022/03/17 10:50:09;;;;;;;94.47;48.43;;;10.60;99.90;;;;;;5059661;28;20597;-76
2022/03/17 10:52:48;;;;;;;70.03;41.83;;;10.70;99.90;;;;;;5060176;28;20210;-76
2022/03/17 10:55:14;;;;;;;67.10;41.93;;;10.70;99.90;;;;;;5060773;28;20206;-76
2022/03/17 10:57:40;;;;;;;72.20;42.70;;;10.90;99.90;;;;;;5060082;28;20207;-77
2022/03/17 11:00:11;;;;;;;68.97;42.47;;;11.10;99.90;;;;;;5059082;28;20191;-77
2022/03/17 11:02:38;;;;;;;70.27;42.80;;;11.10;99.90;;;;;;5061158;28;20218;-79
2022/03/17 11:05:06;;;;;;;66.80;42.03;;;11.00;99.90;;;;;;5065937;28;20198;-80
2022/03/17 11:07:32;;;;;;;65.83;42.07;;;11.00;99.90;;;;;;5061861;28;20252;-78
2022/03/17 11:10:05;;;;;;;69.77;44.33;;;10.90;99.90;;;;;;5058307;28;20207;-77
2022/03/17 11:12:30;;;;;;;69.80;42.37;;;10.90;99.90;;;;;;5060395;28;20171;-79
2022/03/17 11:14:56;;;;;;;70.37;42.40;;;11.00;99.90;;;;;;5061280;28;20182;-78
2022/03/17 11:17:37;;;;;;;68.40;43.00;;;11.10;99.90;;;;;;5061876;28;20217;-78
2022/03/17 11:20:07;;;;;;;68.00;40.87;;;11.00;99.90;;;;;;5063189;28;20250;-80
2022/03/17 11:22:34;;;;;;;62.87;39.87;;;11.00;99.90;;;;;;5062941;28;20240;-80
2022/03/17 11:25:26;;;;;;;64.50;40.80;;;10.80;99.90;;;;;;5061122;28;20214;-76
2022/03/17 11:27:59;;;;;;;62.43;38.97;;;10.90;99.90;;;;;;5060091;28;20249;-73
2022/03/17 11:30:43;;;;;;;65.73;40.33;;;11.00;99.90;;;;;;5062467;28;20740;-76
2022/03/17 11:33:28;;;;;;;63.80;38.90;;;11.10;99.90;;;;;;5067851;28;20174;-71
2022/03/17 11:36:00;;;;;;;60.20;39.53;;;11.10;99.90;;;;;;5059915;28;20224;-80
2022/03/17 11:38:32;;;;;;;62.87;39.63;;;11.10;99.90;;;;;;5061104;28;20207;-77
2022/03/17 11:41:20;;;;;;;61.63;39.63;;;11.00;99.90;;;;;;5064357;28;20207;-77
2022/03/17 11:43:46;;;;;;;56.87;37.53;;;11.20;99.90;;;;;;5064581;28;20203;-77
2022/03/17 11:46:16;;;;;;;60.20;36.63;;;11.20;99.90;;;;;;5063951;28;20290;-77
2022/03/17 11:48:43;;;;;;;56.57;36.10;;;11.10;99.90;;;;;;5060088;28;20278;-76
2022/03/17 11:51:11;;;;;;;69.33;36.90;;;11.10;99.90;;;;;;5068151;28;20195;-76
2022/03/17 11:53:49;;;;;;;58.40;36.60;;;11.30;99.90;;;;;;5062967;28;20207;-76
2022/03/17 11:56:37;;;;;;;59.30;36.30;;;11.20;99.90;;;;;;5062089;28;20203;-78
2022/03/17 11:59:05;;;;;;;59.87;36.43;;;11.40;99.90;;;;;;5067102;28;20202;-74
2022/03/17 12:01:41;;;;;;;59.93;37.20;;;11.40;99.90;;;;;;5065192;28;20224;-75
2022/03/17 12:04:08;;;;;;;56.57;35.20;;;11.60;99.90;;;;;;5065209;28;20205;-75
2022/03/17 12:06:38;;;;;;;57.63;36.87;;;11.60;99.90;;;;;;5062914;28;20229;-76
2022/03/17 12:09:13;;;;;;;54.63;34.97;;;11.70;99.90;;;;;;5060854;28;20172;-75
2022/03/17 12:11:43;;;;;;;56.47;35.60;;;11.80;99.90;;;;;;5069746;28;20214;-73
2022/03/17 12:14:18;;;;;;;53.33;34.47;;;12.00;99.90;;;;;;5059694;28;20211;-71
2022/03/17 12:16:57;;;;;;;54.30;35.27;;;12.00;99.90;;;;;;5064216;28;20286;-72
2022/03/17 12:19:28;;;;;;;58.13;35.20;;;11.90;99.90;;;;;;5063775;28;20234;-77
2022/03/17 12:22:02;;;;;;;49.70;34.73;;;12.00;99.90;;;;;;5067890;28;20273;-76
2022/03/17 12:24:41;;;;;;;60.27;36.53;;;12.10;99.90;;;;;;5061961;28;20181;-76
2022/03/17 12:27:18;;;;;;;50.93;34.20;;;12.00;99.90;;;;;;5065364;28;20240;-76
2022/03/17 12:29:47;;;;;;;58.00;34.73;;;12.00;99.90;;;;;;5060940;28;20207;-74
2022/03/17 12:32:15;;;;;;;54.57;33.77;;;11.90;99.90;;;;;;5059645;28;20254;-76
2022/03/17 12:34:45;;;;;;;60.27;34.13;;;11.80;99.90;;;;;;5060546;28;20218;-75
2022/03/17 12:37:11;;;;;;;46.80;31.83;;;11.70;99.90;;;;;;5060239;28;20195;-72
2022/03/17 12:39:37;;;;;;;51.27;32.13;;;11.70;99.90;;;;;;5063621;28;20268;-76
2022/03/17 12:42:18;;;;;;;58.67;33.23;;;11.80;99.90;;;;;;5063149;28;20290;-75
2022/03/17 12:44:53;;;;;;;54.20;33.20;;;11.70;99.90;;;;;;5061194;28;20290;-73
2022/03/17 12:47:20;;;;;;;48.57;33.10;;;11.60;99.90;;;;;;5060815;28;20202;-76
2022/03/17 12:49:47;;;;;;;51.83;33.93;;;11.70;99.90;;;;;;5058500;28;20239;-75
2022/03/17 12:52:21;;;;;;;51.00;32.93;;;11.60;99.90;;;;;;5064493;28;20226;-71